sensor_id;sensor_type;location;lat;lon;timestamp;P1;durP1;ratioP1;P2;durP2;ratioP2
55136;SDS011;41032;47.818;-3.732;2023-03-08T11:29:41;81.47;;;52.13;;
55136;SDS011;41032;47.818;-3.732;2023-03-08T11:34:45;78.97;;;49.50;;
55136;SDS011;41032;47.818;-3.732;2023-03-08T11:45:45;70.78;;;45.40;;
55136;SDS011;41032;47.818;-3.732;2023-03-08T11:51:05;74.95;;;46.97;;
55136;SDS011;41032;47.818;-3.732;2023-03-08T11:53:41;77.50;;;48.25;;
55136;SDS011;41032;47.818;-3.732;2023-03-08T12:04:31;77.30;;;46.25;;
55136;SDS011;41032;47.818;-3.732;2023-03-08T12:09:55;73.80;;;43.40;;
55136;SDS011;41032;47.818;-3.732;2023-03-08T12:12:29;66.73;;;43.53;;
55136;SDS011;41032;47.818;-3.732;2023-03-08T12:17:52;72.28;;;43.00;;
55136;SDS011;41032;47.818;-3.732;2023-03-08T12:20:41;73.05;;;46.45;;
55136;SDS011;41032;47.818;-3.732;2023-03-08T12:26:18;71.78;;;45.03;;
55136;SDS011;41032;47.818;-3.732;2023-03-08T12:28:57;63.00;;;43.53;;
55136;SDS011;41032;47.818;-3.732;2023-03-08T12:31:29;67.95;;;42.50;;
55136;SDS011;41032;47.818;-3.732;2023-03-08T12:34:10;62.95;;;40.85;;
55136;SDS011;41032;47.818;-3.732;2023-03-08T12:36:48;66.25;;;41.90;;
55136;SDS011;41032;47.818;-3.732;2023-03-08T12:39:28;68.22;;;42.28;;
55136;SDS011;41032;47.818;-3.732;2023-03-08T12:44:36;63.67;;;40.90;;
55136;SDS011;41032;47.818;-3.732;2023-03-08T12:49:39;57.28;;;37.17;;
55136;SDS011;41032;47.818;-3.732;2023-03-08T12:52:45;61.60;;;38.28;;
55136;SDS011;41032;47.818;-3.732;2023-03-08T12:55:23;66.22;;;39.15;;
55136;SDS011;41032;47.818;-3.732;2023-03-08T12:57:49;64.22;;;39.53;;
55136;SDS011;41032;47.818;-3.732;2023-03-08T13:05:40;63.85;;;37.10;;
55136;SDS011;41032;47.818;-3.732;2023-03-08T13:10:51;62.17;;;37.55;;
55136;SDS011;41032;47.818;-3.732;2023-03-08T13:16:21;65.05;;;38.00;;
55136;SDS011;41032;47.818;-3.732;2023-03-08T13:18:49;65.78;;;38.60;;
55136;SDS011;41032;47.818;-3.732;2023-03-08T13:21:31;64.05;;;38.33;;
55136;SDS011;41032;47.818;-3.732;2023-03-08T13:24:03;67.60;;;39.53;;
55136;SDS011;41032;47.818;-3.732;2023-03-08T13:26:57;72.20;;;40.15;;
55136;SDS011;41032;47.818;-3.732;2023-03-08T13:29:36;63.30;;;37.33;;
55136;SDS011;41032;47.818;-3.732;2023-03-08T13:32:08;70.65;;;41.80;;
55136;SDS011;41032;47.818;-3.732;2023-03-08T13:34:40;71.60;;;42.83;;
55136;SDS011;41032;47.818;-3.732;2023-03-08T13:37:29;74.40;;;44.08;;
55136;SDS011;41032;47.818;-3.732;2023-03-08T13:39:58;71.13;;;43.75;;
55136;SDS011;41032;47.818;-3.732;2023-03-08T13:42:27;74.28;;;43.67;;
55136;SDS011;41032;47.818;-3.732;2023-03-08T13:45:16;71.90;;;42.78;;
55136;SDS011;41032;47.818;-3.732;2023-03-08T13:47:43;78.15;;;46.72;;
55136;SDS011;41032;47.818;-3.732;2023-03-08T13:50:18;71.90;;;42.05;;
55136;SDS011;41032;47.818;-3.732;2023-03-08T13:52:49;76.13;;;41.75;;
55136;SDS011;41032;47.818;-3.732;2023-03-08T13:55:19;72.32;;;41.80;;
55136;SDS011;41032;47.818;-3.732;2023-03-08T13:57:51;79.57;;;43.70;;
55136;SDS011;41032;47.818;-3.732;2023-03-08T14:00:31;71.88;;;43.90;;
55136;SDS011;41032;47.818;-3.732;2023-03-08T14:03:03;75.70;;;42.50;;
55136;SDS011;41032;47.818;-3.732;2023-03-08T14:05:40;69.43;;;40.42;;
55136;SDS011;41032;47.818;-3.732;2023-03-08T14:08:18;69.53;;;40.53;;
55136;SDS011;41032;47.818;-3.732;2023-03-08T14:10:53;71.03;;;42.08;;
55136;SDS011;41032;47.818;-3.732;2023-03-08T14:13:29;68.55;;;40.75;;
55136;SDS011;41032;47.818;-3.732;2023-03-08T14:16:00;75.50;;;42.63;;
55136;SDS011;41032;47.818;-3.732;2023-03-08T14:18:36;82.15;;;45.30;;
55136;SDS011;41032;47.818;-3.732;2023-03-08T14:21:18;72.55;;;44.15;;
55136;SDS011;41032;47.818;-3.732;2023-03-08T14:23:51;79.32;;;42.53;;
55136;SDS011;41032;47.818;-3.732;2023-03-08T14:26:23;76.22;;;43.97;;
55136;SDS011;41032;47.818;-3.732;2023-03-08T14:29:35;75.65;;;43.72;;
55136;SDS011;41032;47.818;-3.732;2023-03-08T14:31:56;77.05;;;45.30;;
55136;SDS011;41032;47.818;-3.732;2023-03-08T14:34:27;76.28;;;45.33;;
55136;SDS011;41032;47.818;-3.732;2023-03-08T14:37:03;73.25;;;42.50;;
55136;SDS011;41032;47.818;-3.732;2023-03-08T14:39:52;71.90;;;43.35;;
55136;SDS011;41032;47.818;-3.732;2023-03-08T14:42:26;74.03;;;43.45;;
55136;SDS011;41032;47.818;-3.732;2023-03-08T14:47:55;76.22;;;46.33;;
55136;SDS011;41032;47.818;-3.732;2023-03-08T14:50:26;79.80;;;44.85;;
55136;SDS011;41032;47.818;-3.732;2023-03-08T14:52:57;76.47;;;47.33;;
55136;SDS011;41032;47.818;-3.732;2023-03-08T14:55:28;77.68;;;47.20;;
55136;SDS011;41032;47.818;-3.732;2023-03-08T14:57:59;78.22;;;44.78;;
55136;SDS011;41032;47.818;-3.732;2023-03-08T15:00:30;74.97;;;46.08;;
55136;SDS011;41032;47.818;-3.732;2023-03-08T15:02:59;76.75;;;44.72;;
55136;SDS011;41032;47.818;-3.732;2023-03-08T15:05:27;81.13;;;48.45;;
55136;SDS011;41032;47.818;-3.732;2023-03-08T15:07:56;79.15;;;48.63;;
55136;SDS011;41032;47.818;-3.732;2023-03-08T15:10:35;81.88;;;48.05;;
55136;SDS011;41032;47.818;-3.732;2023-03-08T15:13:05;83.07;;;47.90;;
55136;SDS011;41032;47.818;-3.732;2023-03-08T15:15:44;75.82;;;46.00;;
55136;SDS011;41032;47.818;-3.732;2023-03-08T15:18:13;84.00;;;47.42;;
55136;SDS011;41032;47.818;-3.732;2023-03-08T15:20:43;82.32;;;51.63;;
55136;SDS011;41032;47.818;-3.732;2023-03-08T15:23:16;82.05;;;50.80;;
55136;SDS011;41032;47.818;-3.732;2023-03-08T15:25:49;88.40;;;49.67;;
55136;SDS011;41032;47.818;-3.732;2023-03-08T15:28:18;89.05;;;50.70;;
55136;SDS011;41032;47.818;-3.732;2023-03-08T15:30:49;75.68;;;46.80;;
55136;SDS011;41032;47.818;-3.732;2023-03-08T15:33:18;76.65;;;47.47;;
55136;SDS011;41032;47.818;-3.732;2023-03-08T15:35:47;88.30;;;52.70;;
55136;SDS011;41032;47.818;-3.732;2023-03-08T15:38:16;72.03;;;46.10;;
55136;SDS011;41032;47.818;-3.732;2023-03-08T15:40:47;88.03;;;50.20;;
55136;SDS011;41032;47.818;-3.732;2023-03-08T15:43:15;84.03;;;50.85;;
55136;SDS011;41032;47.818;-3.732;2023-03-08T15:45:44;93.60;;;51.85;;
55136;SDS011;41032;47.818;-3.732;2023-03-08T15:48:13;78.38;;;45.95;;
55136;SDS011;41032;47.818;-3.732;2023-03-08T15:50:41;84.38;;;49.88;;
55136;SDS011;41032;47.818;-3.732;2023-03-08T15:53:10;81.93;;;50.42;;
55136;SDS011;41032;47.818;-3.732;2023-03-08T15:55:38;84.43;;;48.00;;
55136;SDS011;41032;47.818;-3.732;2023-03-08T15:58:05;82.82;;;47.72;;
55136;SDS011;41032;47.818;-3.732;2023-03-08T16:00:32;92.05;;;47.13;;
55136;SDS011;41032;47.818;-3.732;2023-03-08T16:03:00;92.03;;;51.47;;
55136;SDS011;41032;47.818;-3.732;2023-03-08T16:05:28;85.30;;;50.40;;
55136;SDS011;41032;47.818;-3.732;2023-03-08T16:07:57;81.07;;;50.33;;
55136;SDS011;41032;47.818;-3.732;2023-03-08T16:10:28;88.97;;;52.33;;
55136;SDS011;41032;47.818;-3.732;2023-03-08T16:12:57;80.45;;;48.22;;
55136;SDS011;41032;47.818;-3.732;2023-03-08T16:15:25;80.28;;;49.00;;
55136;SDS011;41032;47.818;-3.732;2023-03-08T16:17:52;73.57;;;44.47;;
55136;SDS011;41032;47.818;-3.732;2023-03-08T16:20:20;75.47;;;43.42;;
55136;SDS011;41032;47.818;-3.732;2023-03-08T16:22:48;70.25;;;41.80;;
55136;SDS011;41032;47.818;-3.732;2023-03-08T16:25:16;69.20;;;41.28;;
55136;SDS011;41032;47.818;-3.732;2023-03-08T16:27:43;65.15;;;40.45;;
55136;SDS011;41032;47.818;-3.732;2023-03-08T16:30:11;70.53;;;41.67;;
55136;SDS011;41032;47.818;-3.732;2023-03-08T16:32:39;63.88;;;39.13;;
55136;SDS011;41032;47.818;-3.732;2023-03-08T16:35:07;70.15;;;41.53;;
55136;SDS011;41032;47.818;-3.732;2023-03-08T16:37:34;69.20;;;41.25;;
55136;SDS011;41032;47.818;-3.732;2023-03-08T16:40:02;67.03;;;38.80;;
55136;SDS011;41032;47.818;-3.732;2023-03-08T16:42:31;66.65;;;40.00;;
55136;SDS011;41032;47.818;-3.732;2023-03-08T16:44:58;60.30;;;37.92;;
55136;SDS011;41032;47.818;-3.732;2023-03-08T16:47:26;67.97;;;38.30;;
55136;SDS011;41032;47.818;-3.732;2023-03-08T16:49:57;59.75;;;38.05;;
55136;SDS011;41032;47.818;-3.732;2023-03-08T16:52:26;62.00;;;37.58;;
55136;SDS011;41032;47.818;-3.732;2023-03-08T16:54:53;66.50;;;38.65;;
55136;SDS011;41032;47.818;-3.732;2023-03-08T16:57:21;64.20;;;38.20;;
55136;SDS011;41032;47.818;-3.732;2023-03-08T16:59:49;68.53;;;38.78;;
55136;SDS011;41032;47.818;-3.732;2023-03-08T17:02:18;62.22;;;38.30;;
55136;SDS011;41032;47.818;-3.732;2023-03-08T17:04:46;64.63;;;37.83;;
55136;SDS011;41032;47.818;-3.732;2023-03-08T17:07:14;61.83;;;39.00;;
55136;SDS011;41032;47.818;-3.732;2023-03-08T17:09:41;62.35;;;39.50;;
55136;SDS011;41032;47.818;-3.732;2023-03-08T17:12:10;61.95;;;36.22;;
55136;SDS011;41032;47.818;-3.732;2023-03-08T17:14:37;61.40;;;37.40;;
55136;SDS011;41032;47.818;-3.732;2023-03-08T17:17:06;61.03;;;38.00;;
55136;SDS011;41032;47.818;-3.732;2023-03-08T17:19:34;55.20;;;35.72;;
55136;SDS011;41032;47.818;-3.732;2023-03-08T17:22:02;55.47;;;35.28;;
55136;SDS011;41032;47.818;-3.732;2023-03-08T17:24:29;64.47;;;39.75;;
55136;SDS011;41032;47.818;-3.732;2023-03-08T17:26:58;59.03;;;36.55;;
55136;SDS011;41032;47.818;-3.732;2023-03-08T17:29:26;60.90;;;37.35;;
55136;SDS011;41032;47.818;-3.732;2023-03-08T17:31:54;61.22;;;37.20;;
55136;SDS011;41032;47.818;-3.732;2023-03-08T17:34:21;62.08;;;39.63;;
55136;SDS011;41032;47.818;-3.732;2023-03-08T17:36:49;68.38;;;39.88;;
55136;SDS011;41032;47.818;-3.732;2023-03-08T17:39:17;69.90;;;41.78;;
55136;SDS011;41032;47.818;-3.732;2023-03-08T17:41:45;70.18;;;45.60;;
55136;SDS011;41032;47.818;-3.732;2023-03-08T17:44:12;73.57;;;46.35;;
55136;SDS011;41032;47.818;-3.732;2023-03-08T17:46:40;77.90;;;49.00;;
55136;SDS011;41032;47.818;-3.732;2023-03-08T17:49:07;122.10;;;83.80;;
55136;SDS011;41032;47.818;-3.732;2023-03-08T17:51:37;128.05;;;90.63;;
55136;SDS011;41032;47.818;-3.732;2023-03-08T17:54:04;119.80;;;85.00;;
55136;SDS011;41032;47.818;-3.732;2023-03-08T17:56:33;122.00;;;83.22;;
55136;SDS011;41032;47.818;-3.732;2023-03-08T17:59:03;117.07;;;81.30;;
55136;SDS011;41032;47.818;-3.732;2023-03-08T18:01:30;116.65;;;78.20;;
55136;SDS011;41032;47.818;-3.732;2023-03-08T18:03:59;112.95;;;77.47;;
55136;SDS011;41032;47.818;-3.732;2023-03-08T18:06:27;107.35;;;74.72;;
55136;SDS011;41032;47.818;-3.732;2023-03-08T18:08:55;99.72;;;69.72;;
55136;SDS011;41032;47.818;-3.732;2023-03-08T18:11:23;111.63;;;71.38;;
55136;SDS011;41032;47.818;-3.732;2023-03-08T18:13:51;97.85;;;66.15;;
55136;SDS011;41032;47.818;-3.732;2023-03-08T18:16:19;95.85;;;64.65;;
55136;SDS011;41032;47.818;-3.732;2023-03-08T18:18:47;99.32;;;66.25;;
55136;SDS011;41032;47.818;-3.732;2023-03-08T18:21:15;105.43;;;71.78;;
55136;SDS011;41032;47.818;-3.732;2023-03-08T18:23:43;104.40;;;69.07;;
55136;SDS011;41032;47.818;-3.732;2023-03-08T18:26:12;96.85;;;67.80;;
55136;SDS011;41032;47.818;-3.732;2023-03-08T18:28:41;111.30;;;71.32;;
55136;SDS011;41032;47.818;-3.732;2023-03-08T18:31:10;118.45;;;76.72;;
55136;SDS011;41032;47.818;-3.732;2023-03-08T18:33:39;119.88;;;77.38;;
55136;SDS011;41032;47.818;-3.732;2023-03-08T18:36:06;134.75;;;80.90;;
55136;SDS011;41032;47.818;-3.732;2023-03-08T18:38:34;132.75;;;81.43;;
55136;SDS011;41032;47.818;-3.732;2023-03-08T18:43:39;134.20;;;82.10;;
55136;SDS011;41032;47.818;-3.732;2023-03-08T18:46:07;136.60;;;81.93;;
55136;SDS011;41032;47.818;-3.732;2023-03-08T18:48:36;130.20;;;79.72;;
55136;SDS011;41032;47.818;-3.732;2023-03-08T18:51:03;122.38;;;77.13;;
55136;SDS011;41032;47.818;-3.732;2023-03-08T18:53:31;132.40;;;77.55;;
55136;SDS011;41032;47.818;-3.732;2023-03-08T18:55:59;130.15;;;74.60;;
55136;SDS011;41032;47.818;-3.732;2023-03-08T18:58:28;123.97;;;71.40;;
55136;SDS011;41032;47.818;-3.732;2023-03-08T19:00:56;126.93;;;75.78;;
55136;SDS011;41032;47.818;-3.732;2023-03-08T19:03:25;117.55;;;72.63;;
55136;SDS011;41032;47.818;-3.732;2023-03-08T19:05:53;116.97;;;68.63;;
55136;SDS011;41032;47.818;-3.732;2023-03-08T19:08:20;107.97;;;67.30;;
55136;SDS011;41032;47.818;-3.732;2023-03-08T19:10:48;107.10;;;64.35;;
55136;SDS011;41032;47.818;-3.732;2023-03-08T19:13:15;110.32;;;63.58;;
55136;SDS011;41032;47.818;-3.732;2023-03-08T19:15:42;107.40;;;65.65;;
55136;SDS011;41032;47.818;-3.732;2023-03-08T19:18:10;97.53;;;59.30;;
55136;SDS011;41032;47.818;-3.732;2023-03-08T19:20:37;101.53;;;62.03;;
55136;SDS011;41032;47.818;-3.732;2023-03-08T19:23:06;93.72;;;57.40;;
55136;SDS011;41032;47.818;-3.732;2023-03-08T19:25:35;100.18;;;58.65;;
55136;SDS011;41032;47.818;-3.732;2023-03-08T19:28:22;96.40;;;58.38;;
55136;SDS011;41032;47.818;-3.732;2023-03-08T19:30:49;93.03;;;57.15;;
55136;SDS011;41032;47.818;-3.732;2023-03-08T19:33:16;93.43;;;56.03;;
55136;SDS011;41032;47.818;-3.732;2023-03-08T19:35:44;101.90;;;60.85;;
55136;SDS011;41032;47.818;-3.732;2023-03-08T19:38:11;96.35;;;57.75;;
55136;SDS011;41032;47.818;-3.732;2023-03-08T19:40:41;92.35;;;55.38;;
55136;SDS011;41032;47.818;-3.732;2023-03-08T19:43:09;82.68;;;50.90;;
55136;SDS011;41032;47.818;-3.732;2023-03-08T19:45:36;86.95;;;49.45;;
55136;SDS011;41032;47.818;-3.732;2023-03-08T19:48:04;80.07;;;48.33;;
55136;SDS011;41032;47.818;-3.732;2023-03-08T19:50:31;73.50;;;45.10;;
55136;SDS011;41032;47.818;-3.732;2023-03-08T19:52:58;75.88;;;42.70;;
55136;SDS011;41032;47.818;-3.732;2023-03-08T19:55:25;66.95;;;39.75;;
55136;SDS011;41032;47.818;-3.732;2023-03-08T19:57:53;58.33;;;37.28;;
55136;SDS011;41032;47.818;-3.732;2023-03-08T20:00:20;58.17;;;36.67;;
55136;SDS011;41032;47.818;-3.732;2023-03-08T20:02:47;58.40;;;34.30;;
55136;SDS011;41032;47.818;-3.732;2023-03-08T20:05:15;54.42;;;32.38;;
55136;SDS011;41032;47.818;-3.732;2023-03-08T20:07:43;48.60;;;30.23;;
55136;SDS011;41032;47.818;-3.732;2023-03-08T20:10:15;51.63;;;30.63;;
55136;SDS011;41032;47.818;-3.732;2023-03-08T20:12:43;49.10;;;27.17;;
55136;SDS011;41032;47.818;-3.732;2023-03-08T20:15:10;44.03;;;26.92;;
55136;SDS011;41032;47.818;-3.732;2023-03-08T20:17:38;46.78;;;27.30;;
55136;SDS011;41032;47.818;-3.732;2023-03-08T20:20:06;44.75;;;24.02;;
55136;SDS011;41032;47.818;-3.732;2023-03-08T20:22:33;36.58;;;22.27;;
55136;SDS011;41032;47.818;-3.732;2023-03-08T20:25:01;34.05;;;22.17;;
55136;SDS011;41032;47.818;-3.732;2023-03-08T20:27:28;37.80;;;21.38;;
55136;SDS011;41032;47.818;-3.732;2023-03-08T20:29:56;33.78;;;19.98;;
55136;SDS011;41032;47.818;-3.732;2023-03-08T20:32:23;34.95;;;19.98;;
55136;SDS011;41032;47.818;-3.732;2023-03-08T20:34:51;31.60;;;18.08;;
55136;SDS011;41032;47.818;-3.732;2023-03-08T20:37:18;30.33;;;18.48;;
55136;SDS011;41032;47.818;-3.732;2023-03-08T20:39:51;29.90;;;18.10;;
55136;SDS011;41032;47.818;-3.732;2023-03-08T20:42:19;29.10;;;15.07;;
55136;SDS011;41032;47.818;-3.732;2023-03-08T20:44:47;27.42;;;14.63;;
55136;SDS011;41032;47.818;-3.732;2023-03-08T20:47:15;26.85;;;14.07;;
55136;SDS011;41032;47.818;-3.732;2023-03-08T20:49:43;29.05;;;13.52;;
55136;SDS011;41032;47.818;-3.732;2023-03-08T20:52:11;25.33;;;13.23;;
